Time;durP1;ratioP1;P1;durP2;ratioP2;P2;SDS_P1;SDS_P2;PMS_P1;PMS_P2;Temp;Humidity;BMP_temperature;BMP_pressure;BME280_temperature;BME280_humidity;BME280_pressure;Samples;Min_cycle;Max_cycle;Signal;HPM_P1;HPM_P2
2022/07/20 00:01:54;;;;;;;9.30;5.50;;;;;;;;;;5126543;27;19926;-73
2022/07/20 00:04:24;;;;;;;11.13;6.90;;;;;;;;;;5127047;27;20529;-72
2022/07/20 00:06:56;;;;;;;11.55;5.82;;;;;;;;;;5127903;27;20508;-72
2022/07/20 00:12:15;;;;;;;11.35;6.70;;;;;;;;;;5125656;27;20532;-73
2022/07/20 00:14:46;;;;;;;;;;;;;;;;;;5127998;27;20031;-72
2022/07/20 00:17:17;;;;;;;10.00;5.88;;;;;;;;;;5128039;27;20378;-72
2022/07/20 00:19:47;;;;;;;13.73;7.55;;;;;;;;;;5125079;27;20043;-72
2022/07/20 00:22:17;;;;;;;12.85;7.72;;;;;;;;;;5127515;27;20051;-72
2022/07/20 00:24:46;;;;;;;15.75;8.60;;;;;;;;;;5123221;27;20434;-72
2022/07/20 00:27:18;;;;;;;20.02;11.85;;;;;;;;;;5126647;27;20047;-73
2022/07/20 00:29:49;;;;;;;13.40;8.43;;;;;;;;;;5124751;27;20054;-72
2022/07/20 00:32:18;;;;;;;;;;;;;;;;;;5127535;27;20046;-72
2022/07/20 00:34:48;;;;;;;18.13;6.93;;;;;;;;;;5126253;27;19934;-72
2022/07/20 00:37:18;;;;;;;12.75;6.53;;;;;;;;;;5127416;27;20043;-73
2022/07/20 00:39:48;;;;;;;15.52;7.57;;;;;;;;;;5127730;27;20039;-74
2022/07/20 00:42:19;;;;;;;14.38;8.75;;;;;;;;;;5128316;27;20054;-73
2022/07/20 00:44:48;;;;;;;;;;;;;;;;;;5127783;27;20490;-73
2022/07/20 00:47:18;;;;;;;13.15;7.97;;;;;;;;;;5128364;27;20404;-73
2022/07/20 00:49:47;;;;;;;;;;;;;;;;;;5130200;27;20043;-72
2022/07/20 00:52:17;;;;;;;10.45;7.15;;;;;;;;;;5126692;28;19934;-72
2022/07/20 00:54:48;;;;;;;13.07;7.72;;;;;;;;;;5126250;28;20047;-74
2022/07/20 00:57:20;;;;;;;15.38;8.20;;;;;;;;;;5110244;28;20053;-73
2022/07/20 00:59:50;;;;;;;15.20;7.40;;;;;;;;;;5127847;28;20494;-72
2022/07/20 01:02:20;;;;;;;13.95;7.57;;;;;;;;;;5127333;28;20050;-73
2022/07/20 01:04:49;;;;;;;;;;;;;;;;;;5109280;28;20055;-73
2022/07/20 01:07:19;;;;;;;15.48;8.27;;;;;;;;;;5126299;28;19923;-72
2022/07/20 01:09:50;;;;;;;10.30;6.90;;;;;;;;;;5125784;28;20058;-72
2022/07/20 01:12:20;;;;;;;13.95;7.60;;;;;;;;;;5123369;28;20055;-72
2022/07/20 01:14:53;;;;;;;;;;;;;;;;;;5125319;28;20062;-72
2022/07/20 01:17:24;;;;;;;11.70;6.63;;;;;;;;;;5125392;28;19931;-72
2022/07/20 01:19:53;;;;;;;;;;;;;;;;;;5126362;28;20047;-72
2022/07/20 01:22:23;;;;;;;13.23;5.75;;;;;;;;;;5125318;28;19926;-72
2022/07/20 01:24:52;;;;;;;9.77;5.82;;;;;;;;;;5126600;28;20043;-72
2022/07/20 01:27:23;;;;;;;9.63;6.28;;;;;;;;;;5124374;28;20050;-72
2022/07/20 01:29:54;;;;;;;12.25;6.78;;;;;;;;;;5126071;28;20050;-72
2022/07/20 01:32:24;;;;;;;16.23;8.65;;;;;;;;;;5127075;28;20047;-75
2022/07/20 01:34:53;;;;;;;;;;;;;;;;;;5127641;28;20051;-72
2022/07/20 01:37:23;;;;;;;13.40;8.30;;;;;;;;;;5127146;28;19923;-72
2022/07/20 01:39:53;;;;;;;20.95;9.25;;;;;;;;;;5128673;27;20062;-72
2022/07/20 01:42:24;;;;;;;14.65;7.93;;;;;;;;;;5128717;27;20058;-73
2022/07/20 01:44:53;;;;;;;;;;;;;;;;;;5130087;27;20055;-71
2022/07/20 01:47:23;;;;;;;12.25;7.13;;;;;;;;;;5130950;27;19919;-72
2022/07/20 01:49:53;;;;;;;11.55;7.40;;;;;;;;;;5129889;27;20051;-72
2022/07/20 01:52:22;;;;;;;;;;;;;;;;;;5131718;27;20043;-72
2022/07/20 01:54:52;;;;;;;11.65;6.78;;;;;;;;;;5131140;27;20394;-71
2022/07/20 01:57:22;;;;;;;14.40;7.35;;;;;;;;;;5131226;27;20051;-72
2022/07/20 01:59:52;;;;;;;13.63;6.30;;;;;;;;;;5130866;27;20062;-72
2022/07/20 02:02:22;;;;;;;13.30;6.93;;;;;;;;;;5131334;27;20047;-72
2022/07/20 02:04:52;;;;;;;10.43;6.78;;;;;;;;;;5130905;27;20047;-72
2022/07/20 02:07:22;;;;;;;13.15;6.18;;;;;;;;;;5130497;27;20363;-72
2022/07/20 02:09:52;;;;;;;11.25;6.13;;;;;;;;;;5130402;27;20054;-73
2022/07/20 02:12:21;;;;;;;11.38;5.47;;;;;;;;;;5130700;27;20046;-73
2022/07/20 02:14:51;;;;;;;10.60;5.57;;;;;;;;;;5130422;27;20050;-73
2022/07/20 02:17:21;;;;;;;18.00;5.97;;;;;;;;;;5129701;27;20070;-73
2022/07/20 02:19:51;;;;;;;8.88;5.40;;;;;;;;;;5130320;27;20409;-73
2022/07/20 02:22:21;;;;;;;10.20;5.15;;;;;;;;;;5131664;27;20043;-73
2022/07/20 02:24:50;;;;;;;8.55;5.00;;;;;;;;;;5131734;27;20046;-73
2022/07/20 02:27:20;;;;;;;10.10;6.18;;;;;;;;;;5131460;27;20497;-74
2022/07/20 02:29:50;;;;;;;11.00;6.00;;;;;;;;;;5131238;27;20043;-73
2022/07/20 02:32:20;;;;;;;9.93;5.70;;;;;;;;;;5130002;27;20401;-72
2022/07/20 02:34:50;;;;;;;14.98;6.43;;;;;;;;;;5130304;27;20054;-72
2022/07/20 02:37:20;;;;;;;10.55;6.15;;;;;;;;;;5129715;27;20054;-72
2022/07/20 02:39:50;;;;;;;15.45;6.05;;;;;;;;;;5130304;27;20410;-73
2022/07/20 02:42:20;;;;;;;10.57;6.40;;;;;;;;;;5130246;27;20047;-73
2022/07/20 02:44:49;;;;;;;13.15;6.88;;;;;;;;;;5128500;27;20059;-73
2022/07/20 02:47:19;;;;;;;14.25;6.78;;;;;;;;;;5129874;27;20513;-72
2022/07/20 02:49:49;;;;;;;15.10;7.35;;;;;;;;;;5129944;27;20518;-73
2022/07/20 02:52:19;;;;;;;10.43;6.32;;;;;;;;;;5128985;27;20417;-73
2022/07/20 02:54:48;;;;;;;10.75;6.07;;;;;;;;;;5129439;27;20051;-72
2022/07/20 02:57:18;;;;;;;10.82;5.65;;;;;;;;;;5128171;27;20069;-73
2022/07/20 02:59:48;;;;;;;7.45;4.72;;;;;;;;;;5129610;27;20070;-73
2022/07/20 03:02:18;;;;;;;13.40;4.93;;;;;;;;;;5129853;27;20039;-72
2022/07/20 03:04:48;;;;;;;9.95;6.03;;;;;;;;;;5129734;27;20050;-72
2022/07/20 03:07:18;;;;;;;9.50;5.82;;;;;;;;;;5129721;27;20051;-73
2022/07/20 03:09:48;;;;;;;10.60;5.25;;;;;;;;;;5129549;27;20047;-73
2022/07/20 03:12:17;;;;;;;10.90;5.63;;;;;;;;;;5127486;27;20059;-73
2022/07/20 03:14:48;;;;;;;8.52;5.30;;;;;;;;;;5127843;27;20055;-73
2022/07/20 03:17:18;;;;;;;8.82;5.30;;;;;;;;;;5129478;27;20521;-73
2022/07/20 03:19:48;;;;;;;8.82;5.10;;;;;;;;;;5128834;27;20120;-73
2022/07/20 03:22:18;;;;;;;12.77;5.00;;;;;;;;;;5126993;27;20093;-73
2022/07/20 03:24:48;;;;;;;7.80;4.78;;;;;;;;;;5127629;27;20051;-72
2022/07/20 03:27:17;;;;;;;13.98;5.90;;;;;;;;;;5128971;27;20051;-73
2022/07/20 03:29:47;;;;;;;8.30;4.70;;;;;;;;;;5129697;27;20410;-73
2022/07/20 03:32:17;;;;;;;9.88;6.03;;;;;;;;;;5131892;27;20057;-73
2022/07/20 03:34:47;;;;;;;10.63;5.05;;;;;;;;;;5129048;27;20047;-73
2022/07/20 03:37:16;;;;;;;13.90;4.88;;;;;;;;;;5128554;27;20047;-73
2022/07/20 03:39:46;;;;;;;10.15;5.93;;;;;;;;;;5127191;27;20047;-73
2022/07/20 03:42:16;;;;;;;8.45;5.35;;;;;;;;;;5128667;27;20054;-73
2022/07/20 03:44:46;;;;;;;15.05;5.70;;;;;;;;;;5127399;27;21124;-72
2022/07/20 03:47:16;;;;;;;10.55;5.95;;;;;;;;;;5127584;27;20051;-72
2022/07/20 03:49:46;;;;;;;11.93;6.03;;;;;;;;;;5128930;27;20047;-72
2022/07/20 03:52:16;;;;;;;12.02;5.88;;;;;;;;;;5128775;27;20413;-72
2022/07/20 03:54:48;;;;;;;11.50;5.82;;;;;;;;;;5128314;27;20074;-72
2022/07/20 03:57:18;;;;;;;10.07;6.93;;;;;;;;;;5128129;27;20058;-72
2022/07/20 03:59:48;;;;;;;10.02;5.82;;;;;;;;;;5128520;27;20061;-72
2022/07/20 04:02:18;;;;;;;14.85;6.30;;;;;;;;;;5127850;27;20043;-72
2022/07/20 04:04:47;;;;;;;;;;;;;;;;;;5129013;27;20047;-72
2022/07/20 04:07:17;;;;;;;10.30;5.50;;;;;;;;;;5128388;27;20293;-72
2022/07/20 04:09:47;;;;;;;9.68;5.93;;;;;;;;;;5128455;27;20047;-72
2022/07/20 04:12:19;;;;;;;9.05;5.35;;;;;;;;;;5126816;27;20054;-72
2022/07/20 04:14:52;;;;;;;12.13;5.55;;;;;;;;;;5128558;27;20041;-72
2022/07/20 04:17:23;;;;;;;13.75;5.50;;;;;;;;;;5128215;27;20526;-72
2022/07/20 04:19:53;;;;;;;8.93;5.78;;;;;;;;;;5127780;27;20039;-73
2022/07/20 04:22:22;;;;;;;11.95;6.70;;;;;;;;;;5128051;27;20554;-72
2022/07/20 04:24:52;;;;;;;11.95;6.22;;;;;;;;;;5127822;27;20047;-72
2022/07/20 04:27:22;;;;;;;9.90;5.95;;;;;;;;;;5128189;27;20051;-72
2022/07/20 04:29:52;;;;;;;12.00;7.10;;;;;;;;;;5127619;27;20047;-72
2022/07/20 04:32:22;;;;;;;10.48;6.93;;;;;;;;;;5128024;27;20506;-72
2022/07/20 04:34:51;;;;;;;10.88;6.32;;;;;;;;;;5128158;27;20478;-72
2022/07/20 04:37:22;;;;;;;14.15;6.53;;;;;;;;;;5127461;27;20043;-72
2022/07/20 04:39:53;;;;;;;11.48;6.82;;;;;;;;;;5128365;27;20047;-72
2022/07/20 04:42:23;;;;;;;12.15;6.57;;;;;;;;;;5127451;27;20038;-72
2022/07/20 04:44:53;;;;;;;12.13;6.47;;;;;;;;;;5128032;27;20783;-72
2022/07/20 04:47:23;;;;;;;16.67;6.60;;;;;;;;;;5127667;27;20497;-72
2022/07/20 04:49:52;;;;;;;;;;;;;;;;;;5127967;27;20410;-72
2022/07/20 04:52:22;;;;;;;9.93;6.13;;;;;;;;;;5128032;27;19923;-72
2022/07/20 04:54:52;;;;;;;8.80;5.18;;;;;;;;;;5127113;27;20043;-72
2022/07/20 04:57:21;;;;;;;9.85;5.63;;;;;;;;;;5127297;28;20050;-72
2022/07/20 04:59:52;;;;;;;11.85;5.55;;;;;;;;;;5127745;28;20074;-72
2022/07/20 05:02:22;;;;;;;8.98;4.93;;;;;;;;;;5127025;28;20047;-72
2022/07/20 05:04:52;;;;;;;7.45;4.78;;;;;;;;;;5127241;28;20050;-72
2022/07/20 05:07:22;;;;;;;12.27;6.18;;;;;;;;;;5127890;28;20517;-73
2022/07/20 05:09:51;;;;;;;10.75;5.22;;;;;;;;;;5126791;27;20055;-72
2022/07/20 05:12:21;;;;;;;13.63;5.50;;;;;;;;;;5127459;28;21135;-72
2022/07/20 05:14:51;;;;;;;9.32;5.35;;;;;;;;;;5128753;27;20054;-72
2022/07/20 05:17:21;;;;;;;9.48;5.45;;;;;;;;;;5131777;27;20043;-72
2022/07/20 05:19:50;;;;;;;11.73;5.40;;;;;;;;;;5131579;27;20050;-72
2022/07/20 05:22:20;;;;;;;13.70;5.20;;;;;;;;;;5131062;27;20058;-72
2022/07/20 05:24:50;;;;;;;8.68;4.78;;;;;;;;;;5131363;27;20047;-72
2022/07/20 05:27:20;;;;;;;7.75;4.72;;;;;;;;;;5131640;27;20510;-72
2022/07/20 05:29:50;;;;;;;10.77;4.78;;;;;;;;;;5131619;27;20490;-72
2022/07/20 05:32:19;;;;;;;8.55;4.80;;;;;;;;;;5131370;27;20051;-72
2022/07/20 05:34:50;;;;;;;12.30;4.95;;;;;;;;;;5131947;27;20043;-74
2022/07/20 05:37:20;;;;;;;8.98;4.82;;;;;;;;;;5131020;27;20050;-73
2022/07/20 05:39:49;;;;;;;;;;;;;;;;;;5131379;27;20058;-72
2022/07/20 05:42:19;;;;;;;7.57;4.75;;;;;;;;;;5131175;27;19923;-72
2022/07/20 05:44:49;;;;;;;10.15;5.25;;;;;;;;;;5130870;27;20073;-72
2022/07/20 05:47:18;;;;;;;10.20;4.95;;;;;;;;;;5130768;27;20057;-72
2022/07/20 05:49:48;;;;;;;11.00;5.13;;;;;;;;;;5131589;27;20047;-72
2022/07/20 05:52:18;;;;;;;11.73;5.95;;;;;;;;;;5130778;27;20461;-72
2022/07/20 05:54:48;;;;;;;8.68;4.72;;;;;;;;;;5130589;27;20050;-73
2022/07/20 05:57:17;;;;;;;;;;;;;;;;;;5131292;27;20203;-72
2022/07/20 05:59:47;;;;;;;9.80;4.78;;;;;;;;;;5130798;27;20302;-72
2022/07/20 06:02:17;;;;;;;9.38;4.75;;;;;;;;;;5131405;27;20414;-72
2022/07/20 06:04:47;;;;;;;8.30;4.13;;;;;;;;;;5130441;27;20429;-72
2022/07/20 06:07:16;;;;;;;;;;;;;;;;;;5131157;27;20509;-72
2022/07/20 06:09:46;;;;;;;8.65;4.32;;;;;;;;;;5129267;27;19919;-73
2022/07/20 06:12:15;;;;;;;9.63;5.25;;;;;;;;;;5130204;27;20047;-72
2022/07/20 06:14:45;;;;;;;8.02;5.28;;;;;;;;;;5130199;27;20051;-72
2022/07/20 06:17:15;;;;;;;10.55;4.70;;;;;;;;;;5129157;27;20043;-73
2022/07/20 06:19:44;;;;;;;;;;;;;;;;;;5130834;27;20043;-73
2022/07/20 06:22:14;;;;;;;10.23;3.83;;;;;;;;;;5130440;27;20378;-72
2022/07/20 06:24:44;;;;;;;6.22;4.13;;;;;;;;;;5130392;27;20078;-73
2022/07/20 06:27:25;;;;;;;10.88;4.45;;;;;;;;;;5129889;27;20054;-72
2022/07/20 06:29:55;;;;;;;10.07;4.03;;;;;;;;;;5130595;27;20054;-72
2022/07/20 06:32:24;;;;;;;;;;;;;;;;;;5131387;27;20517;-72
2022/07/20 06:34:54;;;;;;;7.65;4.10;;;;;;;;;;5128972;27;19947;-72
2022/07/20 06:37:24;;;;;;;4.30;3.33;;;;;;;;;;5128222;27;20039;-72
2022/07/20 06:39:55;;;;;;;8.23;4.30;;;;;;;;;;5130026;27;20520;-72
2022/07/20 06:42:25;;;;;;;12.35;3.95;;;;;;;;;;5128243;27;20051;-72
2022/07/20 06:44:57;;;;;;;7.78;4.72;;;;;;;;;;5128464;27;20063;-73
2022/07/20 06:47:27;;;;;;;7.05;4.22;;;;;;;;;;5130042;27;20042;-72
2022/07/20 06:49:56;;;;;;;;;;;;;;;;;;5130496;27;20051;-73
2022/07/20 06:52:33;;;;;;;8.57;4.07;;;;;;;;;;5130133;27;20515;-72
2022/07/20 06:55:04;;;;;;;6.95;4.78;;;;;;;;;;5129876;27;20386;-72
2022/07/20 06:57:33;;;;;;;8.77;4.13;;;;;;;;;;5129067;27;20062;-73
2022/07/20 07:00:03;;;;;;;;;;;;;;;;;;5130246;27;20044;-73
2022/07/20 07:02:33;;;;;;;9.93;4.38;;;;;;;;;;5129640;27;19928;-72
2022/07/20 07:05:03;;;;;;;8.15;4.60;;;;;;;;;;5128433;27;20502;-72
2022/07/20 07:07:33;;;;;;;9.73;4.90;;;;;;;;;;5129190;27;20054;-72
2022/07/20 07:10:03;;;;;;;;;;;;;;;;;;5111539;27;20051;-72
2022/07/20 07:12:33;;;;;;;9.25;3.78;;;;;;;;;;5129338;27;19923;-72
2022/07/20 07:15:03;;;;;;;10.05;4.57;;;;;;;;;;5130068;27;20054;-74
2022/07/20 07:17:36;;;;;;;9.07;4.18;;;;;;;;;;5130346;27;20051;-72
2022/07/20 07:20:10;;;;;;;8.65;4.28;;;;;;;;;;5129837;27;20399;-73
2022/07/20 07:22:40;;;;;;;8.93;5.32;;;;;;;;;;5129177;27;20046;-72
2022/07/20 07:25:10;;;;;;;9.35;4.32;;;;;;;;;;5129113;27;20051;-72
2022/07/20 07:27:40;;;;;;;6.78;4.15;;;;;;;;;;5128385;27;20062;-73
2022/07/20 07:30:10;;;;;;;12.90;4.50;;;;;;;;;;5128756;27;20043;-72
2022/07/20 07:32:40;;;;;;;10.20;4.40;;;;;;;;;;5127943;27;20579;-72
2022/07/20 07:35:10;;;;;;;12.30;5.07;;;;;;;;;;5129105;27;20042;-72
2022/07/20 07:37:40;;;;;;;10.30;4.22;;;;;;;;;;5128287;27;20047;-73
2022/07/20 07:40:10;;;;;;;11.70;4.72;;;;;;;;;;5129230;27;20047;-73
2022/07/20 07:42:40;;;;;;;8.90;4.65;;;;;;;;;;5129527;27;20047;-73
2022/07/20 07:45:10;;;;;;;8.38;4.47;;;;;;;;;;5128977;27;20059;-72
2022/07/20 07:47:42;;;;;;;7.47;4.57;;;;;;;;;;5129145;27;20043;-73
2022/07/20 07:50:12;;;;;;;27.88;6.90;;;;;;;;;;5128867;27;20043;-72
2022/07/20 07:52:44;;;;;;;46.92;5.97;;;;;;;;;;5128569;27;20054;-73
2022/07/20 07:55:24;;;;;;;55.00;5.80;;;;;;;;;;5128355;27;20062;-73
2022/07/20 07:57:56;;;;;;;17.90;5.63;;;;;;;;;;5127996;27;20489;-72
2022/07/20 08:00:35;;;;;;;91.25;7.25;;;;;;;;;;5128261;27;20035;-72
2022/07/20 08:03:07;;;;;;;130.30;11.38;;;;;;;;;;5128124;27;20046;-72
2022/07/20 08:05:37;;;;;;;70.68;6.55;;;;;;;;;;5128092;27;20062;-72
2022/07/20 08:08:07;;;;;;;;;;;;;;;;;;5128910;27;20417;-73
2022/07/20 08:10:39;;;;;;;126.40;7.20;;;;;;;;;;5128454;27;19931;-73
2022/07/20 08:13:09;;;;;;;74.03;6.43;;;;;;;;;;5128404;27;20047;-73
2022/07/20 08:15:38;;;;;;;;;;;;;;;;;;5128969;27;20065;-73
2022/07/20 08:18:08;;;;;;;82.03;7.07;;;;;;;;;;5127806;27;19923;-72
2022/07/20 08:20:38;;;;;;;102.47;7.07;;;;;;;;;;5128116;27;20494;-73
2022/07/20 08:23:08;;;;;;;48.65;5.82;;;;;;;;;;5128258;27;20054;-72
2022/07/20 08:25:38;;;;;;;112.65;8.13;;;;;;;;;;5127951;27;20048;-74
2022/07/20 08:28:11;;;;;;;73.95;6.60;;;;;;;;;;5127771;27;20046;-72
2022/07/20 08:30:44;;;;;;;133.88;9.48;;;;;;;;;;5127648;27;20066;-73
2022/07/20 08:33:25;;;;;;;193.88;8.88;;;;;;;;;;5127885;27;20070;-72
2022/07/20 08:35:55;;;;;;;154.32;7.85;;;;;;;;;;5127961;27;20050;-73
2022/07/20 08:38:25;;;;;;;150.18;7.07;;;;;;;;;;5128402;27;20053;-73
2022/07/20 08:40:56;;;;;;;96.55;7.03;;;;;;;;;;5128035;27;20047;-73
2022/07/20 08:43:28;;;;;;;88.20;8.77;;;;;;;;;;5126988;27;20047;-72
2022/07/20 08:45:58;;;;;;;89.07;7.07;;;;;;;;;;5127774;27;20055;-72
2022/07/20 08:48:28;;;;;;;121.07;10.90;;;;;;;;;;5127183;27;20055;-73
2022/07/20 08:50:57;;;;;;;;;;;;;;;;;;5128138;27;20051;-73
2022/07/20 08:53:27;;;;;;;55.95;7.47;;;;;;;;;;5130741;27;19924;-72
2022/07/20 08:55:57;;;;;;;47.28;8.32;;;;;;;;;;5128489;27;20051;-73
2022/07/20 08:58:27;;;;;;;38.72;9.25;;;;;;;;;;5127980;28;20050;-75
2022/07/20 09:00:56;;;;;;;25.38;7.43;;;;;;;;;;5127807;28;20035;-73
2022/07/20 09:03:26;;;;;;;62.00;10.60;;;;;;;;;;5127809;28;20050;-73
2022/07/20 09:06:06;;;;;;;;;;;;;;;;;;5128221;28;20391;-73
2022/07/20 09:08:56;;;;;;;52.13;9.52;;;;;;;;;;5127218;28;19930;-73
2022/07/20 09:11:26;;;;;;;58.30;9.20;;;;;;;;;;5127552;28;20414;-72
2022/07/20 09:13:56;;;;;;;77.70;9.95;;;;;;;;;;5127424;28;20043;-73
2022/07/20 09:16:40;;;;;;;39.72;9.23;;;;;;;;;;5127616;28;20054;-73
2022/07/20 09:19:11;;;;;;;47.85;9.10;;;;;;;;;;5127301;28;20426;-73
2022/07/20 09:21:48;;;;;;;48.03;9.07;;;;;;;;;;5125868;28;20051;-73
2022/07/20 09:24:19;;;;;;;30.60;8.20;;;;;;;;;;5126946;28;20055;-75
2022/07/20 09:27:04;;;;;;;47.83;9.05;;;;;;;;;;5127435;28;20046;-73
2022/07/20 09:29:34;;;;;;;74.90;8.27;;;;;;;;;;5127553;28;20047;-73
2022/07/20 09:32:04;;;;;;;163.93;11.82;;;;;;;;;;5127555;28;20043;-73
2022/07/20 09:34:37;;;;;;;59.25;9.40;;;;;;;;;;5127423;28;20054;-73
2022/07/20 09:37:17;;;;;;;40.33;8.88;;;;;;;;;;5127172;28;20039;-73
2022/07/20 09:40:04;;;;;;;70.88;10.52;;;;;;;;;;5126980;28;20051;-73
2022/07/20 09:42:46;;;;;;;91.25;10.25;;;;;;;;;;5127046;28;20410;-73
2022/07/20 09:45:26;;;;;;;67.82;11.23;;;;;;;;;;5127266;28;20604;-73
2022/07/20 09:48:13;;;;;;;63.90;9.85;;;;;;;;;;5126984;28;20051;-73
2022/07/20 09:50:44;;;;;;;153.73;14.10;;;;;;;;;;5126719;28;20573;-74
2022/07/20 09:53:15;;;;;;;88.35;10.88;;;;;;;;;;5126461;27;20043;-74
2022/07/20 09:55:45;;;;;;;103.93;11.23;;;;;;;;;;5126648;28;20552;-72
2022/07/20 09:58:15;;;;;;;;;;;;;;;;;;5127616;28;20047;-72
2022/07/20 10:00:45;;;;;;;63.50;10.18;;;;;;;;;;5128968;27;19923;-73
2022/07/20 10:03:16;;;;;;;68.05;11.10;;;;;;;;;;5130782;27;20093;-72
2022/07/20 10:05:46;;;;;;;73.25;10.52;;;;;;;;;;5131017;27;20073;-78
2022/07/20 10:08:16;;;;;;;69.57;13.98;;;;;;;;;;5129019;27;20509;-73
2022/07/20 10:10:45;;;;;;;164.98;12.90;;;;;;;;;;5129525;27;20050;-72
2022/07/20 10:13:16;;;;;;;153.23;10.65;;;;;;;;;;5130143;27;20533;-73
2022/07/20 10:16:01;;;;;;;118.82;14.43;;;;;;;;;;5130737;27;20494;-73
2022/07/20 10:18:31;;;;;;;165.02;11.60;;;;;;;;;;5130811;27;20506;-73
2022/07/20 10:21:21;;;;;;;81.50;10.38;;;;;;;;;;5130320;27;20054;-74
2022/07/20 10:24:18;;;;;;;86.55;8.38;;;;;;;;;;5131073;27;20494;-73
2022/07/20 10:27:16;;;;;;;119.10;10.80;;;;;;;;;;5124508;27;20062;-73
2022/07/20 10:29:56;;;;;;;133.25;8.38;;;;;;;;;;5130098;27;20077;-73
2022/07/20 10:32:28;;;;;;;86.80;7.45;;;;;;;;;;5130227;27;20058;-72
2022/07/20 10:35:00;;;;;;;90.35;8.23;;;;;;;;;;5130276;27;20043;-74
2022/07/20 10:37:41;;;;;;;90.65;8.20;;;;;;;;;;5129550;27;20047;-73
2022/07/20 10:40:17;;;;;;;75.45;6.93;;;;;;;;;;5127914;27;20066;-72
2022/07/20 10:42:50;;;;;;;72.05;8.30;;;;;;;;;;5127957;27;20050;-74
2022/07/20 10:45:20;;;;;;;39.05;5.75;;;;;;;;;;5129043;27;20055;-73
2022/07/20 10:47:51;;;;;;;;;;;;;;;;;;5130084;27;20043;-73
2022/07/20 10:50:22;;;;;;;35.53;4.80;;;;;;;;;;5130071;27;20394;-73
2022/07/20 10:52:58;;;;;;;112.93;7.00;;;;;;;;;;5129833;27;20047;-74
2022/07/20 10:55:35;;;;;;;;;;;;;;;;;;5130785;27;20050;-72
2022/07/20 10:58:07;;;;;;;8.32;4.97;;;;;;;;;;5130219;27;19934;-72
2022/07/20 11:00:45;;;;;;;36.75;5.65;;;;;;;;;;5129349;27;20035;-72
2022/07/20 11:03:19;;;;;;;55.10;6.32;;;;;;;;;;5129469;27;20054;-74
2022/07/20 11:06:08;;;;;;;44.33;6.13;;;;;;;;;;5129663;27;20410;-72
2022/07/20 11:08:42;;;;;;;72.70;9.35;;;;;;;;;;5129628;27;20498;-72
2022/07/20 11:11:17;;;;;;;48.22;4.75;;;;;;;;;;5129330;27;20059;-72
2022/07/20 11:13:49;;;;;;;49.90;4.80;;;;;;;;;;5127162;27;20499;-72
2022/07/20 11:16:23;;;;;;;82.93;5.50;;;;;;;;;;5128690;27;20429;-72
2022/07/20 11:18:56;;;;;;;25.52;4.63;;;;;;;;;;5129127;27;20536;-70
2022/07/20 11:21:35;;;;;;;101.47;4.53;;;;;;;;;;5129277;27;20049;-72
2022/07/20 11:24:24;;;;;;;119.50;5.30;;;;;;;;;;5127011;27;20043;-73
2022/07/20 11:26:55;;;;;;;254.95;8.27;;;;;;;;;;5128238;27;20498;-73
2022/07/20 11:29:27;;;;;;;201.32;7.00;;;;;;;;;;5127340;27;20039;-72
2022/07/20 11:32:07;;;;;;;131.80;6.22;;;;;;;;;;5125605;27;20061;-71
2022/07/20 11:34:53;;;;;;;47.95;12.48;;;;;;;;;;5127493;27;20043;-71
2022/07/20 11:37:25;;;;;;;57.33;5.10;;;;;;;;;;5127095;27;20047;-72
2022/07/20 11:39:55;;;;;;;121.05;5.50;;;;;;;;;;5127075;27;20861;-72
2022/07/20 11:42:25;;;;;;;214.50;10.13;;;;;;;;;;5127503;27;20066;-72
2022/07/20 11:45:01;;;;;;;72.88;4.50;;;;;;;;;;5128239;27;20070;-71
2022/07/20 11:47:31;;;;;;;133.00;5.68;;;;;;;;;;5129203;27;20050;-71
2022/07/20 11:50:09;;;;;;;261.65;8.57;;;;;;;;;;5127445;27;20055;-71
2022/07/20 11:52:47;;;;;;;28.95;3.75;;;;;;;;;;5126541;27;20062;-72
2022/07/20 11:55:16;;;;;;;;;;;;;;;;;;5129054;27;20050;-72
2022/07/20 11:57:55;;;;;;;101.10;4.07;;;;;;;;;;5128475;27;19919;-71
2022/07/20 12:00:29;;;;;;;142.57;7.20;;;;;;;;;;5128522;27;20059;-71
2022/07/20 12:03:00;;;;;;;72.72;8.43;;;;;;;;;;5128585;27;20383;-72
2022/07/20 12:05:30;;;;;;;97.20;6.60;;;;;;;;;;5128728;27;20051;-72
2022/07/20 12:08:12;;;;;;;;;;;;;;;;;;5128358;27;20043;-71
2022/07/20 12:10:44;;;;;;;50.33;3.70;;;;;;;;;;5109245;27;20402;-71
2022/07/20 12:13:16;;;;;;;72.22;4.55;;;;;;;;;;5127961;27;20047;-72
2022/07/20 12:16:03;;;;;;;214.77;8.52;;;;;;;;;;5127805;27;20418;-72
2022/07/20 12:18:47;;;;;;;149.90;5.72;;;;;;;;;;5127255;27;20047;-71
2022/07/20 12:21:26;;;;;;;123.35;7.10;;;;;;;;;;5127938;27;20061;-72
2022/07/20 12:23:56;;;;;;;126.88;4.88;;;;;;;;;;5127182;27;20047;-73
2022/07/20 12:26:31;;;;;;;88.65;8.10;;;;;;;;;;5128289;27;20039;-72
2022/07/20 12:29:20;;;;;;;140.82;6.63;;;;;;;;;;5127966;27;20054;-72
2022/07/20 12:31:58;;;;;;;89.40;4.93;;;;;;;;;;5127684;27;20060;-73
2022/07/20 12:34:28;;;;;;;68.32;5.45;;;;;;;;;;5128012;27;20039;-72
2022/07/20 12:36:58;;;;;;;122.03;11.68;;;;;;;;;;5128198;27;20046;-74
2022/07/20 12:39:47;;;;;;;102.22;6.18;;;;;;;;;;5128140;27;20055;-72
2022/07/20 12:42:23;;;;;;;110.72;5.70;;;;;;;;;;5128331;27;20051;-71
2022/07/20 12:45:08;;;;;;;80.50;5.95;;;;;;;;;;5128056;27;20113;-72
2022/07/20 12:47:38;;;;;;;64.32;6.00;;;;;;;;;;5127788;27;20046;-72
2022/07/20 12:50:28;;;;;;;26.63;5.13;;;;;;;;;;5127536;27;20050;-72
2022/07/20 12:52:58;;;;;;;;;;;;;;;;;;5128314;27;20054;-72
2022/07/20 12:55:27;;;;;;;70.22;4.95;;;;;;;;;;5127747;27;19923;-72
2022/07/20 12:57:57;;;;;;;;;;;;;;;;;;5126502;27;20069;-73
2022/07/20 13:00:27;;;;;;;53.90;4.97;;;;;;;;;;5127670;28;20272;-72
2022/07/20 13:02:57;;;;;;;;;;;;;;;;;;5127942;28;20062;-72
2022/07/20 13:05:26;;;;;;;41.60;4.57;;;;;;;;;;5127760;28;19930;-72
2022/07/20 13:07:56;;;;;;;;;;;;;;;;;;5127038;28;20046;-72
2022/07/20 13:10:25;;;;;;;12.00;3.90;;;;;;;;;;5128013;28;19926;-73
2022/07/20 13:12:55;;;;;;;11.27;3.75;;;;;;;;;;5127821;28;20050;-72
2022/07/20 13:15:25;;;;;;;;;;;;;;;;;;5128147;28;20417;-72
2022/07/20 13:18:08;;;;;;;8.93;5.00;;;;;;;;;;5127145;28;19927;-72
2022/07/20 13:20:40;;;;;;;8.65;4.85;;;;;;;;;;5127423;28;20529;-72
2022/07/20 13:23:10;;;;;;;9.13;4.75;;;;;;;;;;5127318;28;20044;-72
2022/07/20 13:25:40;;;;;;;;;;;;;;;;;;5127762;28;20054;-73
2022/07/20 13:28:11;;;;;;;9.88;4.70;;;;;;;;;;5127213;28;19924;-73
2022/07/20 13:30:51;;;;;;;9.05;4.20;;;;;;;;;;5127166;28;20050;-72
2022/07/20 13:33:21;;;;;;;7.68;4.25;;;;;;;;;;5127071;28;20035;-72
2022/07/20 13:35:52;;;;;;;14.93;5.18;;;;;;;;;;5129139;27;20848;-72
2022/07/20 13:38:22;;;;;;;11.13;5.03;;;;;;;;;;5131087;27;20058;-73
2022/07/20 13:40:52;;;;;;;7.63;4.45;;;;;;;;;;5131623;27;20109;-73
2022/07/20 13:43:23;;;;;;;16.92;6.05;;;;;;;;;;5129494;27;20062;-72
2022/07/20 13:45:53;;;;;;;6.55;3.88;;;;;;;;;;5130855;27;20066;-71
2022/07/20 13:48:23;;;;;;;8.70;4.93;;;;;;;;;;5130546;27;20525;-72
2022/07/20 13:50:53;;;;;;;6.95;4.28;;;;;;;;;;5130937;27;20098;-74
2022/07/20 13:53:44;;;;;;;7.60;5.25;;;;;;;;;;5130535;27;20051;-73
2022/07/20 13:56:13;;;;;;;11.65;5.25;;;;;;;;;;5130805;27;20497;-74
2022/07/20 13:58:43;;;;;;;9.25;4.55;;;;;;;;;;5131179;27;20448;-72
2022/07/20 14:01:13;;;;;;;7.78;3.78;;;;;;;;;;5131020;27;20047;-74
2022/07/20 14:03:43;;;;;;;8.18;5.60;;;;;;;;;;5130923;27;20051;-73
2022/07/20 14:06:13;;;;;;;6.55;4.20;;;;;;;;;;5131368;27;20433;-74
2022/07/20 14:08:43;;;;;;;14.90;5.32;;;;;;;;;;5130470;27;20518;-73
2022/07/20 14:11:13;;;;;;;4.82;4.13;;;;;;;;;;5129386;27;20062;-74
2022/07/20 14:13:45;;;;;;;6.38;3.85;;;;;;;;;;5130900;27;20043;-74
2022/07/20 14:16:15;;;;;;;5.70;4.22;;;;;;;;;;5130686;27;20047;-73
2022/07/20 14:18:46;;;;;;;4.28;3.88;;;;;;;;;;5128469;27;20058;-73
2022/07/20 14:21:16;;;;;;;4.20;3.53;;;;;;;;;;5130496;27;20047;-72
2022/07/20 14:23:47;;;;;;;29.15;5.15;;;;;;;;;;5130634;27;20140;-73
2022/07/20 14:26:17;;;;;;;6.85;3.42;;;;;;;;;;5130749;27;20414;-74
2022/07/20 14:28:48;;;;;;;5.75;3.92;;;;;;;;;;5130495;27;20062;-73
2022/07/20 14:31:18;;;;;;;4.72;3.63;;;;;;;;;;5130420;27;20054;-74
2022/07/20 14:33:48;;;;;;;5.03;3.13;;;;;;;;;;5130123;27;20039;-73
2022/07/20 14:36:18;;;;;;;5.20;3.60;;;;;;;;;;5129844;27;20054;-73
2022/07/20 14:38:48;;;;;;;4.80;3.28;;;;;;;;;;5130473;27;20050;-74
2022/07/20 14:41:22;;;;;;;5.53;3.40;;;;;;;;;;5127895;27;20514;-73
2022/07/20 14:43:52;;;;;;;15.35;4.38;;;;;;;;;;5130156;27;20047;-73
2022/07/20 14:46:23;;;;;;;4.47;3.28;;;;;;;;;;5129822;27;20051;-73
2022/07/20 14:48:53;;;;;;;7.32;3.22;;;;;;;;;;5128754;27;20502;-74
2022/07/20 14:51:23;;;;;;;4.65;3.78;;;;;;;;;;5130163;27;20039;-73
2022/07/20 14:53:53;;;;;;;3.95;3.40;;;;;;;;;;5129659;27;20536;-73
2022/07/20 14:56:24;;;;;;;5.10;3.13;;;;;;;;;;5129796;27;20043;-72
2022/07/20 14:58:54;;;;;;;3.75;3.00;;;;;;;;;;5129586;27;20513;-73
2022/07/20 15:01:24;;;;;;;14.15;4.00;;;;;;;;;;5129725;27;20047;-73
2022/07/20 15:03:54;;;;;;;3.85;3.08;;;;;;;;;;5130340;27;20043;-73
2022/07/20 15:06:29;;;;;;;8.65;6.25;;;;;;;;;;5129440;27;20043;-73
2022/07/20 15:09:04;;;;;;;6.97;2.85;;;;;;;;;;5129644;27;20387;-75
2022/07/20 15:11:39;;;;;;;3.60;2.83;;;;;;;;;;5129537;27;20039;-75
2022/07/20 15:14:09;;;;;;;3.45;2.63;;;;;;;;;;5129482;27;20402;-74